createdAt,value
2017-10-31T00:01:50.154Z,7.20
2017-10-31T00:04:18.257Z,7.10
2017-10-31T00:06:46.342Z,7.10
2017-10-31T00:09:14.458Z,7.10
2017-10-31T00:11:43.211Z,7.10
2017-10-31T00:14:12.078Z,6.90
2017-10-31T00:16:40.938Z,6.80
2017-10-31T00:19:10.304Z,6.80
2017-10-31T00:21:38.412Z,6.80
2017-10-31T00:24:13.175Z,6.80
2017-10-31T00:26:41.258Z,6.80
2017-10-31T00:29:09.364Z,6.70
2017-10-31T00:31:50.791Z,6.70
2017-10-31T00:34:19.712Z,6.60
2017-10-31T00:36:47.798Z,6.60
2017-10-31T00:39:15.899Z,6.60
2017-10-31T00:41:43.986Z,6.60
2017-10-31T00:44:12.098Z,6.70
2017-10-31T00:46:40.186Z,6.70
2017-10-31T00:49:08.273Z,6.70
2017-10-31T00:51:36.363Z,6.80
2017-10-31T00:54:04.878Z,6.90
2017-10-31T00:56:32.974Z,6.90
2017-10-31T00:59:01.922Z,6.90
2017-10-31T01:01:30.038Z,6.90
2017-10-31T01:03:58.131Z,6.90
2017-10-31T01:06:26.255Z,6.80
2017-10-31T01:08:54.333Z,6.90
2017-10-31T01:11:22.449Z,6.90
2017-10-31T01:13:50.534Z,6.90
2017-10-31T01:16:18.742Z,6.90
2017-10-31T01:18:46.824Z,7.00
2017-10-31T01:21:14.916Z,6.90
2017-10-31T01:23:43.011Z,6.90
2017-10-31T01:26:11.890Z,6.90
2017-10-31T01:28:40.746Z,6.90
2017-10-31T01:31:08.842Z,6.80
2017-10-31T01:33:36.974Z,6.80
2017-10-31T01:36:05.830Z,6.90
2017-10-31T01:38:33.909Z,6.80
2017-10-31T01:41:02.773Z,7.00
2017-10-31T01:43:31.665Z,7.00
2017-10-31T01:45:59.801Z,7.00
2017-10-31T01:48:28.651Z,6.90
2017-10-31T01:50:56.738Z,6.90
2017-10-31T01:53:25.598Z,6.90
2017-10-31T01:55:54.465Z,6.80
2017-10-31T01:58:22.566Z,6.80
2017-10-31T02:00:50.645Z,6.80
2017-10-31T02:03:19.237Z,6.80
2017-10-31T02:05:47.317Z,6.90
2017-10-31T02:08:16.177Z,6.90
2017-10-31T02:10:44.267Z,6.90
2017-10-31T02:13:12.384Z,6.90
2017-10-31T02:15:40.466Z,7.00
2017-10-31T02:18:09.334Z,7.00
2017-10-31T02:20:38.193Z,7.00
2017-10-31T02:23:06.335Z,7.00
2017-10-31T02:25:34.440Z,7.00
2017-10-31T02:28:02.539Z,7.00
2017-10-31T02:30:30.636Z,6.90
2017-10-31T02:32:59.483Z,6.80
2017-10-31T02:35:27.577Z,6.80
2017-10-31T02:37:56.435Z,6.80
2017-10-31T02:40:25.318Z,6.90
2017-10-31T02:42:53.402Z,6.90
2017-10-31T02:45:21.499Z,6.90
2017-10-31T02:47:49.598Z,6.90
2017-10-31T02:50:18.455Z,7.00
2017-10-31T02:52:47.293Z,7.00
2017-10-31T02:55:15.394Z,7.10
2017-10-31T02:57:44.294Z,7.10
2017-10-31T03:00:12.398Z,7.10
2017-10-31T03:02:40.530Z,7.10
2017-10-31T03:05:08.631Z,7.10
2017-10-31T03:07:37.490Z,7.00
2017-10-31T03:10:05.597Z,7.00
2017-10-31T03:12:33.681Z,7.00
2017-10-31T03:15:01.760Z,7.00
2017-10-31T03:17:29.849Z,7.00
2017-10-31T03:19:57.934Z,7.00
2017-10-31T03:22:26.740Z,7.00
2017-10-31T03:24:54.825Z,7.00
2017-10-31T03:27:22.913Z,6.90
2017-10-31T03:29:51.003Z,6.80
2017-10-31T03:32:19.085Z,6.80
2017-10-31T03:34:47.939Z,6.90
2017-10-31T03:37:16.021Z,6.80
2017-10-31T03:39:44.098Z,6.90
2017-10-31T03:42:12.187Z,7.00
2017-10-31T03:44:40.266Z,6.90
2017-10-31T03:47:09.130Z,6.80
2017-10-31T03:49:37.208Z,6.80
2017-10-31T03:52:06.075Z,6.80
2017-10-31T03:54:34.973Z,6.80
2017-10-31T03:57:03.091Z,6.80
2017-10-31T03:59:31.162Z,6.80
2017-10-31T04:02:00.018Z,6.80
2017-10-31T04:04:28.102Z,6.80
2017-10-31T04:06:57.198Z,6.80
2017-10-31T04:09:25.275Z,6.80
2017-10-31T04:11:53.362Z,6.80
2017-10-31T04:14:21.449Z,6.70
2017-10-31T04:16:50.309Z,6.70
2017-10-31T04:19:18.401Z,6.70
2017-10-31T04:21:57.403Z,6.70
2017-10-31T04:24:25.491Z,6.60
2017-10-31T04:26:53.579Z,6.40
2017-10-31T04:29:21.661Z,6.50
2017-10-31T04:31:49.750Z,6.50
2017-10-31T04:34:17.839Z,6.50
2017-10-31T04:36:45.926Z,6.60
2017-10-31T04:39:14.781Z,6.70
2017-10-31T04:41:43.671Z,6.70
2017-10-31T04:44:12.521Z,6.70
2017-10-31T04:46:40.672Z,6.60
2017-10-31T04:49:18.353Z,6.70
2017-10-31T04:51:47.171Z,6.70
2017-10-31T04:54:15.283Z,6.70
2017-10-31T04:56:46.158Z,6.60
2017-10-31T04:59:17.093Z,6.60
2017-10-31T05:01:45.177Z,6.60
2017-10-31T05:04:13.797Z,6.60
2017-10-31T05:06:43.120Z,6.60
2017-10-31T05:09:22.203Z,6.60
2017-10-31T05:11:51.465Z,6.60
2017-10-31T05:14:19.574Z,6.50
2017-10-31T05:16:47.701Z,6.60
2017-10-31T05:19:21.639Z,6.60
2017-10-31T05:21:49.766Z,6.60
2017-10-31T05:24:25.966Z,6.70
2017-10-31T05:26:56.939Z,6.70
2017-10-31T05:29:40.524Z,6.70
2017-10-31T05:32:33.851Z,6.70
2017-10-31T05:35:15.662Z,6.70
2017-10-31T05:40:48.280Z,6.60
2017-10-31T05:43:17.203Z,6.70
2017-10-31T05:48:43.138Z,6.70
2017-10-31T05:51:11.239Z,6.70
2017-10-31T05:53:39.348Z,6.70
2017-10-31T05:56:09.315Z,6.70
2017-10-31T05:58:37.441Z,6.70
2017-10-31T06:01:07.439Z,6.70
2017-10-31T06:03:36.300Z,6.70
2017-10-31T06:06:04.381Z,6.60
2017-10-31T06:08:32.471Z,6.70
2017-10-31T06:11:01.534Z,6.70
2017-10-31T06:13:29.636Z,6.70
2017-10-31T06:15:57.757Z,6.70
2017-10-31T06:18:25.853Z,6.80
2017-10-31T06:21:01.318Z,6.80
2017-10-31T06:23:35.174Z,6.80
2017-10-31T06:26:08.930Z,6.80
2017-10-31T06:28:42.602Z,6.80
2017-10-31T06:31:16.286Z,6.80
2017-10-31T06:34:00.890Z,6.80
2017-10-31T06:36:29.745Z,6.80
2017-10-31T06:38:57.854Z,6.80
2017-10-31T06:41:25.950Z,6.80
2017-10-31T06:43:54.046Z,6.90
2017-10-31T06:46:22.133Z,6.90
2017-10-31T06:48:50.229Z,6.90
2017-10-31T06:51:19.273Z,6.90
2017-10-31T06:53:47.377Z,6.80
2017-10-31T06:56:15.476Z,6.80
2017-10-31T06:58:43.569Z,6.80
2017-10-31T07:01:14.678Z,6.80
2017-10-31T07:03:42.766Z,6.90
2017-10-31T07:06:11.664Z,7.00
2017-10-31T07:08:40.758Z,7.00
2017-10-31T07:11:19.468Z,7.10
2017-10-31T07:13:51.418Z,7.10
2017-10-31T07:16:19.509Z,7.10
2017-10-31T07:18:47.606Z,7.10
2017-10-31T07:21:16.458Z,7.20
2017-10-31T07:23:44.550Z,7.20
2017-10-31T07:26:12.659Z,7.20
2017-10-31T07:28:40.731Z,7.30
2017-10-31T07:31:14.507Z,7.30
2017-10-31T07:33:42.593Z,7.30
2017-10-31T07:36:10.681Z,7.30
2017-10-31T07:38:38.801Z,7.30
2017-10-31T07:41:10.272Z,7.30
2017-10-31T07:43:38.364Z,7.30
2017-10-31T07:46:06.455Z,7.30
2017-10-31T07:48:34.550Z,7.30
2017-10-31T07:51:02.638Z,7.30
2017-10-31T07:53:31.496Z,7.30
2017-10-31T07:55:59.585Z,7.30
2017-10-31T08:01:23.432Z,7.40
2017-10-31T08:03:53.378Z,7.50
2017-10-31T08:06:21.474Z,7.50
2017-10-31T08:08:49.576Z,7.60
2017-10-31T08:11:17.697Z,7.60
2017-10-31T08:13:45.799Z,7.70
2017-10-31T08:16:14.671Z,7.80
2017-10-31T08:18:42.881Z,7.80
2017-10-31T08:23:49.646Z,8.00
2017-10-31T08:26:18.517Z,8.00
2017-10-31T08:28:47.114Z,8.00
2017-10-31T08:31:15.243Z,8.10
2017-10-31T08:33:48.483Z,8.10
2017-10-31T08:36:16.560Z,8.10
2017-10-31T08:38:44.686Z,8.20
2017-10-31T08:41:12.800Z,8.20
2017-10-31T08:43:41.917Z,8.30
2017-10-31T08:46:10.050Z,8.30
2017-10-31T08:48:38.159Z,8.40
2017-10-31T08:51:06.290Z,8.40
2017-10-31T08:53:34.411Z,8.40
2017-10-31T08:56:03.267Z,8.40
2017-10-31T08:58:33.177Z,8.50
2017-10-31T09:01:02.040Z,8.50
2017-10-31T09:03:30.938Z,8.50
2017-10-31T09:05:59.801Z,8.50
2017-10-31T09:08:28.694Z,8.50
2017-10-31T09:10:57.765Z,8.50
2017-10-31T09:13:25.889Z,8.50
2017-10-31T09:15:55.970Z,8.50
2017-10-31T09:18:24.082Z,8.50
2017-10-31T09:20:52.311Z,8.60
2017-10-31T09:23:20.427Z,8.60
2017-10-31T09:25:48.548Z,8.70
2017-10-31T09:28:16.674Z,8.70
2017-10-31T09:30:45.646Z,8.70
2017-10-31T09:33:13.750Z,8.80
2017-10-31T09:35:41.846Z,8.90
2017-10-31T09:38:09.951Z,9.00
2017-10-31T09:40:38.806Z,9.20
2017-10-31T09:43:06.920Z,9.20
2017-10-31T09:45:34.994Z,9.30
2017-10-31T09:48:03.182Z,9.30
2017-10-31T09:50:32.162Z,9.30
2017-10-31T09:53:00.329Z,9.20
2017-10-31T09:55:28.557Z,9.40
2017-10-31T09:57:58.684Z,9.40
2017-10-31T10:00:26.777Z,9.50
2017-10-31T10:02:54.929Z,9.60
2017-10-31T10:05:23.053Z,9.50
2017-10-31T10:07:51.985Z,9.50
2017-10-31T10:10:20.932Z,9.50
2017-10-31T10:12:49.076Z,9.50
2017-10-31T10:15:17.245Z,9.50
2017-10-31T10:17:45.654Z,9.60
2017-10-31T10:20:14.026Z,9.60
2017-10-31T10:22:42.789Z,9.70
2017-10-31T10:25:12.097Z,9.80
2017-10-31T10:27:40.762Z,9.70
2017-10-31T10:30:09.367Z,9.80
2017-10-31T10:32:37.769Z,9.70
2017-10-31T10:35:14.298Z,9.70
2017-10-31T10:37:42.689Z,9.70
2017-10-31T10:40:14.785Z,9.70
2017-10-31T10:42:43.235Z,9.70
2017-10-31T10:45:12.951Z,9.60
2017-10-31T10:47:41.354Z,9.60
2017-10-31T10:50:09.634Z,9.60
2017-10-31T10:52:42.592Z,9.60
2017-10-31T10:55:10.695Z,9.50
2017-10-31T10:57:38.934Z,9.60
2017-10-31T11:00:07.795Z,9.60
2017-10-31T11:02:35.912Z,9.60
2017-10-31T11:05:04.720Z,9.60
2017-10-31T11:07:34.869Z,9.60
2017-10-31T11:10:03.044Z,9.70
2017-10-31T11:12:31.171Z,9.50
2017-10-31T11:14:59.295Z,9.50
2017-10-31T11:17:28.350Z,9.40
2017-10-31T11:19:57.481Z,9.50
2017-10-31T11:22:26.428Z,9.70
2017-10-31T11:24:54.555Z,9.70
2017-10-31T11:27:22.700Z,9.80
2017-10-31T11:29:50.996Z,9.80
2017-10-31T11:32:19.135Z,9.70
2017-10-31T11:34:47.278Z,9.70
2017-10-31T11:37:15.372Z,9.70
2017-10-31T11:39:43.781Z,9.60
2017-10-31T11:42:12.860Z,9.60
2017-10-31T11:44:41.089Z,9.60
2017-10-31T11:47:09.193Z,9.60
2017-10-31T11:49:37.386Z,9.60
2017-10-31T11:52:05.508Z,9.50
2017-10-31T11:54:33.641Z,9.50
2017-10-31T11:57:01.776Z,9.50
2017-10-31T11:59:30.680Z,9.50
2017-10-31T12:01:58.855Z,9.50
2017-10-31T12:04:27.855Z,9.50
2017-10-31T12:06:57.089Z,9.60
2017-10-31T12:09:25.235Z,9.60
2017-10-31T12:11:54.181Z,9.70
2017-10-31T12:14:22.303Z,9.70
2017-10-31T12:16:56.223Z,9.80
2017-10-31T12:19:24.354Z,9.90
2017-10-31T12:22:05.028Z,9.90
2017-10-31T12:24:33.148Z,10.00
2017-10-31T12:27:01.294Z,10.10
2017-10-31T12:29:31.473Z,10.10
2017-10-31T12:32:00.363Z,10.10
2017-10-31T12:34:28.599Z,10.10
2017-10-31T12:36:56.975Z,10.00
2017-10-31T12:39:25.407Z,9.90
2017-10-31T12:41:55.430Z,10.00
2017-10-31T12:44:23.905Z,10.00
2017-10-31T12:46:53.468Z,10.00
2017-10-31T12:49:21.982Z,10.00
2017-10-31T12:51:51.184Z,10.00
2017-10-31T12:54:19.309Z,10.00
2017-10-31T12:56:47.424Z,10.00
2017-10-31T12:59:16.342Z,9.90
2017-10-31T13:01:45.243Z,9.90
2017-10-31T13:04:13.453Z,9.90
2017-10-31T13:06:42.206Z,10.00
2017-10-31T13:09:10.412Z,10.00
2017-10-31T13:11:40.845Z,10.00
2017-10-31T13:14:09.929Z,10.00
2017-10-31T13:16:38.054Z,10.00
2017-10-31T13:19:06.215Z,10.10
2017-10-31T13:21:34.426Z,10.10
2017-10-31T13:24:03.110Z,10.20
2017-10-31T13:26:31.509Z,10.10
2017-10-31T13:28:59.941Z,10.20
2017-10-31T13:31:31.882Z,10.20
2017-10-31T13:34:01.102Z,10.20
2017-10-31T13:36:29.610Z,10.20
2017-10-31T13:38:57.932Z,10.20
2017-10-31T13:41:27.287Z,10.20
2017-10-31T13:43:59.492Z,10.10
2017-10-31T13:46:29.067Z,10.10
2017-10-31T13:48:58.022Z,10.10
2017-10-31T13:51:28.477Z,10.10
2017-10-31T13:53:56.582Z,10.10
2017-10-31T13:56:24.724Z,10.10
2017-10-31T13:58:54.847Z,10.10
2017-10-31T14:01:23.046Z,10.10
2017-10-31T14:03:51.372Z,10.10
2017-10-31T14:06:19.778Z,10.10
2017-10-31T14:08:49.044Z,10.10
2017-10-31T14:11:17.393Z,10.10
2017-10-31T14:13:45.503Z,10.10
2017-10-31T14:16:19.920Z,10.10
2017-10-31T14:18:48.123Z,10.10
2017-10-31T14:21:17.180Z,10.10
2017-10-31T14:23:45.356Z,10.00
2017-10-31T14:26:13.467Z,10.10
2017-10-31T14:28:42.357Z,10.00
2017-10-31T14:31:11.274Z,10.00
2017-10-31T14:33:40.419Z,10.00
2017-10-31T14:36:08.541Z,9.90
2017-10-31T14:38:36.663Z,9.90
2017-10-31T14:41:05.794Z,9.90
2017-10-31T14:43:35.036Z,10.00
2017-10-31T14:46:03.164Z,9.90
2017-10-31T14:48:31.250Z,9.90
2017-10-31T14:50:59.389Z,9.90
2017-10-31T14:53:27.494Z,9.90
2017-10-31T14:55:56.653Z,9.90
2017-10-31T14:58:25.858Z,9.90
2017-10-31T15:00:53.971Z,9.90
2017-10-31T15:03:26.530Z,9.90
2017-10-31T15:05:54.695Z,9.90
2017-10-31T15:08:22.790Z,9.90
2017-10-31T15:10:50.872Z,9.90
2017-10-31T15:13:19.073Z,9.90
2017-10-31T15:15:47.138Z,9.90
2017-10-31T15:18:15.365Z,9.80
2017-10-31T15:20:43.586Z,9.80
2017-10-31T15:23:15.982Z,9.80
2017-10-31T15:25:44.060Z,9.80
2017-10-31T15:28:12.164Z,9.80
2017-10-31T15:30:41.026Z,9.80
2017-10-31T15:33:09.180Z,9.80
2017-10-31T15:35:37.310Z,9.80
2017-10-31T15:38:10.979Z,9.70
2017-10-31T15:40:39.084Z,9.70
2017-10-31T15:43:07.378Z,9.70
2017-10-31T15:45:35.541Z,9.70
2017-10-31T15:48:05.704Z,9.70
2017-10-31T15:50:33.831Z,9.60
2017-10-31T15:53:01.974Z,9.60
2017-10-31T15:55:30.860Z,9.50
2017-10-31T15:57:59.003Z,9.50
2017-10-31T16:00:29.399Z,9.50
2017-10-31T16:02:59.542Z,9.50
2017-10-31T16:05:29.634Z,9.50
2017-10-31T16:07:57.871Z,9.50
2017-10-31T16:10:26.004Z,9.50
2017-10-31T16:12:54.174Z,9.40
2017-10-31T16:15:29.055Z,9.40
2017-10-31T16:17:57.180Z,9.40
2017-10-31T16:20:25.313Z,9.30
2017-10-31T16:22:53.415Z,9.20
2017-10-31T16:25:22.024Z,9.20
2017-10-31T16:27:50.260Z,9.20
2017-10-31T16:30:18.367Z,9.20
2017-10-31T16:32:49.772Z,9.20
2017-10-31T16:35:18.921Z,9.20
2017-10-31T16:37:47.830Z,9.10
2017-10-31T16:40:17.589Z,9.10
2017-10-31T16:42:45.700Z,9.10
2017-10-31T16:45:13.883Z,9.00
2017-10-31T16:47:42.784Z,9.10
2017-10-31T16:50:11.690Z,9.10
2017-10-31T16:52:39.887Z,9.10
2017-10-31T16:55:08.062Z,9.20
2017-10-31T16:57:36.265Z,9.20
2017-10-31T17:00:05.758Z,9.20
2017-10-31T17:02:34.220Z,9.20
2017-10-31T17:05:02.937Z,9.20
2017-10-31T17:07:31.021Z,9.20
2017-10-31T17:10:04.785Z,9.30
2017-10-31T17:12:32.910Z,9.30
2017-10-31T17:15:02.613Z,9.40
2017-10-31T17:17:31.019Z,9.40
2017-10-31T17:19:59.351Z,9.40
2017-10-31T17:22:46.492Z,9.50
2017-10-31T17:25:15.456Z,9.50
2017-10-31T17:27:49.017Z,9.50
2017-10-31T17:30:17.181Z,9.50
2017-10-31T17:32:45.901Z,9.50
2017-10-31T17:35:14.053Z,9.50
2017-10-31T17:37:42.205Z,9.50
2017-10-31T17:40:11.315Z,9.60
2017-10-31T17:42:39.570Z,9.60
2017-10-31T17:45:08.535Z,9.60
2017-10-31T17:47:36.642Z,9.60
2017-10-31T17:50:04.847Z,9.60
2017-10-31T17:52:34.328Z,9.60
2017-10-31T17:55:03.391Z,9.60
2017-10-31T18:03:49.650Z,9.70
2017-10-31T18:06:17.886Z,9.70
2017-10-31T18:08:47.411Z,9.70
2017-10-31T18:11:15.752Z,9.70
2017-10-31T18:13:44.006Z,9.70
2017-10-31T18:16:12.397Z,9.70
2017-10-31T18:18:40.625Z,9.70
2017-10-31T18:21:08.799Z,9.70
2017-10-31T18:23:37.809Z,9.70
2017-10-31T18:26:10.128Z,9.80
2017-10-31T18:28:38.326Z,9.80
2017-10-31T18:31:09.385Z,9.80
2017-10-31T18:33:38.186Z,9.80
2017-10-31T18:36:08.261Z,9.70
2017-10-31T18:38:37.186Z,9.70
2017-10-31T18:41:05.384Z,9.70
2017-10-31T18:43:34.200Z,9.70
2017-10-31T18:46:02.321Z,9.70
2017-10-31T18:48:31.470Z,9.70
2017-10-31T18:51:01.567Z,9.70
2017-10-31T18:53:30.386Z,9.70
2017-10-31T18:56:00.216Z,9.70
2017-10-31T18:58:33.717Z,9.70
2017-10-31T19:36:05.973Z,9.60
2017-10-31T19:38:34.231Z,9.60
2017-10-31T19:41:02.360Z,9.60
2017-10-31T19:43:39.140Z,9.60
2017-10-31T19:46:18.599Z,9.60
2017-10-31T19:51:46.291Z,9.50
2017-10-31T19:54:15.477Z,9.50
2017-10-31T19:56:44.400Z,9.50
2017-10-31T19:59:12.966Z,9.40
2017-10-31T20:01:41.958Z,9.40
2017-10-31T20:04:10.232Z,9.40
2017-10-31T20:06:39.294Z,9.40
2017-10-31T20:09:09.440Z,9.40
2017-10-31T20:11:37.726Z,9.40
2017-10-31T20:14:13.094Z,9.40
2017-10-31T20:16:41.286Z,9.40
2017-10-31T20:19:10.233Z,9.40
2017-10-31T20:21:38.344Z,9.40
2017-10-31T20:24:06.559Z,9.40
2017-10-31T20:26:48.652Z,9.30
2017-10-31T20:29:16.826Z,9.30
2017-10-31T20:31:46.141Z,9.30
2017-10-31T20:34:14.342Z,9.30
2017-10-31T20:36:42.512Z,9.30
2017-10-31T20:39:10.706Z,9.30
2017-10-31T20:41:39.774Z,9.30
2017-10-31T20:44:20.044Z,9.30
2017-10-31T20:46:48.249Z,9.30
2017-10-31T20:49:16.460Z,9.30
2017-10-31T20:51:50.991Z,9.30
2017-10-31T20:54:19.184Z,9.30
2017-10-31T20:56:47.325Z,9.30
2017-10-31T20:59:15.494Z,9.30
2017-10-31T21:01:43.613Z,9.30
2017-10-31T21:04:11.763Z,9.30
2017-10-31T21:06:47.430Z,9.30
2017-10-31T21:09:15.639Z,9.30
2017-10-31T21:11:48.057Z,9.30
2017-10-31T21:14:18.927Z,9.30
2017-10-31T21:16:49.357Z,9.30
2017-10-31T21:19:17.512Z,9.30
2017-10-31T21:21:50.163Z,9.30
2017-10-31T21:24:21.433Z,9.30
2017-10-31T21:26:49.664Z,9.30
2017-10-31T21:29:33.501Z,9.30
2017-10-31T21:32:12.923Z,9.30
2017-10-31T21:34:42.283Z,9.30
2017-10-31T21:37:10.497Z,9.30
2017-10-31T21:39:38.853Z,9.30
2017-10-31T21:42:09.915Z,9.30
2017-10-31T21:44:41.160Z,9.30
2017-10-31T21:47:11.522Z,9.20
2017-10-31T21:49:42.068Z,9.20
2017-10-31T21:52:11.360Z,9.20
2017-10-31T21:54:39.649Z,9.20
2017-10-31T21:57:09.681Z,9.20
2017-10-31T21:59:40.639Z,9.10
2017-10-31T22:02:09.498Z,9.10
2017-10-31T22:04:38.485Z,9.20
2017-10-31T22:07:08.027Z,9.10
2017-10-31T22:09:37.008Z,9.20
2017-10-31T22:12:05.158Z,9.20
2017-10-31T22:14:34.438Z,9.30
2017-10-31T22:17:03.571Z,9.20
2017-10-31T22:19:31.761Z,9.30
2017-10-31T22:22:01.764Z,9.30
2017-10-31T22:24:30.083Z,9.30
2017-10-31T22:26:59.056Z,9.30
2017-10-31T22:29:30.716Z,9.30
2017-10-31T22:32:00.839Z,9.30
2017-10-31T22:34:29.305Z,9.30
2017-10-31T22:37:03.353Z,9.30
2017-10-31T22:39:31.576Z,9.30
2017-10-31T22:41:59.728Z,9.30
2017-10-31T22:44:27.980Z,9.30
2017-10-31T22:46:58.237Z,9.30
2017-10-31T22:49:26.462Z,9.30
2017-10-31T22:51:54.657Z,9.30
2017-10-31T22:54:23.616Z,9.20
2017-10-31T22:56:54.244Z,9.20
2017-10-31T23:02:08.305Z,9.20
2017-10-31T23:04:36.486Z,9.20
2017-10-31T23:07:04.674Z,9.20
2017-10-31T23:09:41.834Z,9.20
2017-10-31T23:12:12.449Z,9.20
2017-10-31T23:14:41.849Z,9.20
2017-10-31T23:17:09.992Z,9.20
2017-10-31T23:22:13.688Z,9.20
2017-10-31T23:24:41.860Z,9.20
2017-10-31T23:27:10.849Z,9.20
2017-10-31T23:29:39.044Z,9.20
2017-10-31T23:32:07.257Z,9.20
2017-10-31T23:34:35.457Z,9.20
2017-10-31T23:37:03.627Z,9.20
2017-10-31T23:39:31.801Z,9.20
2017-10-31T23:42:00.588Z,9.20
2017-10-31T23:44:29.990Z,9.20
2017-10-31T23:46:58.250Z,9.20
2017-10-31T23:49:26.415Z,9.20
2017-10-31T23:51:54.556Z,9.20
2017-10-31T23:54:23.435Z,9.20
2017-10-31T23:56:51.568Z,9.10
2017-10-31T23:59:19.710Z,9.10
